This is the latest recevied weather packets stored in our database for station/object DC1RS. If no packets are shown the sender has not sent any weather packets the latest 10 day(s).
| Time | Temp. | Humidity | Pressure | Rain* | Wind** | Luminosity | Snow |
|---|---|---|---|---|---|---|---|
| 1777241661 | 6.67° C | 70% | 1022.3 hPa | 0 mm | - | 0 W/m² | - |
| 1777240731 | 6.67° C | 68% | 1022.2 hPa | 0 mm | - | 0 W/m² | - |
| 1777239171 | 7.78° C | 67% | 1022.1 hPa | 0 mm | - | 0 W/m² | - |
| 1777237281 | 8.33° C | 64% | 1022.2 hPa | 0 mm | - | 0 W/m² | - |
| 1777235691 | 10° C | 57% | 1022.1 hPa | 0 mm | - | 0 W/m² | - |
| 1777233501 | 11.67° C | 47% | 1022 hPa | 0 mm | - | 0 W/m² | - |
| 1777231881 | 12.78° C | 46% | 1021.7 hPa | 0 mm | - | 0 W/m² | - |
| 1777230291 | 13.33° C | 43% | 1021.4 hPa | 0 mm | - | 0 W/m² | - |
| 1777228511 | 13.89° C | 41% | 1021.2 hPa | 0 mm | - | 0 W/m² | - |
| 1777226751 | 14.44° C | 42% | 1020.9 hPa | 0 mm | - | 7 W/m² | - |
| 1777225821 | 14.44° C | 40% | 1020.8 hPa | 0 mm | - | 17 W/m² | - |
| 1777224201 | 15.56° C | 40% | 1020.8 hPa | 0 mm | - | 36 W/m² | - |
| 1777222701 | 16.67° C | 35% | 1020.8 hPa | 0 mm | - | 67 W/m² | - |
| 1777221411 | 17.22° C | 37% | 1021 hPa | 0 mm | - | 117 W/m² | - |
| 1777219851 | 17.78° C | 37% | 1021.1 hPa | 0 mm | - | 154 W/m² | - |
| 1777219031 | 17.78° C | 35% | 1021.4 hPa | 0 mm | - | 188 W/m² | - |
| 1777217961 | 17.78° C | 35% | 1021.5 hPa | 0 mm | - | 206 W/m² | - |
| 1777216371 | 18.33° C | 36% | 1021.2 hPa | 0 mm | - | 251 W/m² | - |
| 1777213821 | 18.33° C | 36% | 1021.8 hPa | 0 mm | - | 316 W/m² | - |
| 1777212201 | 19.44° C | 34% | 1021.6 hPa | 0 mm | - | 562 W/m² | - |
| 1777210281 | 19.44° C | 37% | 1021.7 hPa | 0 mm | - | 669 W/m² | - |
| 1777208691 | 19.44° C | 34% | 1022.1 hPa | 0 mm | - | 724 W/m² | - |
| 1777208031 | 18.33° C | 35% | 1022.2 hPa | 0 mm | - | 734 W/m² | - |
| 1777207401 | 18.89° C | 33% | 1022.2 hPa | 0 mm | - | 768 W/m² | - |
| 1777205811 | 18.33° C | 35% | 1022.2 hPa | 0 mm | - | 795 W/m² | - |
* Rain latest hour (hover to see other rain measurements)
** Current wind speed in m/s (hover to see current wind gust speed)